createdAt,value
2018-04-15T00:00:58.241Z,21.00
2018-04-15T00:03:26.785Z,22.67
2018-04-15T00:05:55.308Z,22.97
2018-04-15T00:08:23.825Z,24.50
2018-04-15T00:10:52.297Z,26.13
2018-04-15T00:13:20.848Z,26.03
2018-04-15T00:15:49.336Z,25.07
2018-04-15T00:18:17.849Z,25.13
2018-04-15T00:20:46.326Z,25.10
2018-04-15T00:23:14.834Z,24.77
2018-04-15T00:25:43.336Z,24.63
2018-04-15T00:28:11.814Z,26.10
2018-04-15T00:30:40.332Z,24.53
2018-04-15T00:33:08.793Z,23.97
2018-04-15T00:35:37.307Z,23.63
2018-04-15T00:38:05.791Z,24.70
2018-04-15T00:40:34.292Z,24.00
2018-04-15T00:43:02.760Z,25.00
2018-04-15T00:45:31.288Z,23.87
2018-04-15T00:47:59.733Z,24.10
2018-04-15T00:50:28.202Z,23.47
2018-04-15T00:52:56.715Z,23.23
2018-04-15T00:55:25.227Z,22.70
2018-04-15T00:57:53.737Z,23.50
2018-04-15T01:00:22.208Z,23.87
2018-04-15T01:02:50.712Z,24.10
2018-04-15T01:05:19.241Z,24.63
2018-04-15T01:07:47.713Z,22.00
2018-04-15T01:10:19.135Z,21.00
2018-04-15T01:12:47.684Z,21.87
2018-04-15T01:15:16.167Z,22.70
2018-04-15T01:17:44.682Z,21.37
2018-04-15T01:20:13.152Z,21.63
2018-04-15T01:22:41.673Z,20.80
2018-04-15T01:25:10.158Z,20.60
2018-04-15T01:27:38.708Z,20.30
2018-04-15T01:30:07.206Z,21.70
2018-04-15T01:32:35.704Z,22.53
2018-04-15T01:35:04.213Z,23.03
2018-04-15T01:37:32.696Z,24.03
2018-04-15T01:40:01.197Z,23.73
2018-04-15T01:42:29.711Z,26.20
2018-04-15T01:44:58.234Z,24.93
2018-04-15T01:47:26.740Z,26.13
2018-04-15T01:49:55.240Z,28.97
2018-04-15T01:52:23.708Z,29.07
2018-04-15T01:54:52.194Z,28.70
2018-04-15T01:57:20.708Z,28.63
2018-04-15T01:59:49.228Z,28.13
2018-04-15T02:02:17.728Z,29.70
2018-04-15T02:04:46.208Z,31.53
2018-04-15T02:07:14.697Z,31.57
2018-04-15T02:09:43.188Z,33.27
2018-04-15T02:12:11.710Z,32.43
2018-04-15T02:14:40.209Z,33.67
2018-04-15T02:17:08.722Z,32.30
2018-04-15T02:19:37.260Z,33.37
2018-04-15T02:22:05.796Z,34.27
2018-04-15T02:24:34.246Z,33.50
2018-04-15T02:27:02.744Z,34.03
2018-04-15T02:29:31.264Z,34.10
2018-04-15T02:31:59.737Z,33.47
2018-04-15T02:34:28.251Z,35.53
2018-04-15T02:36:56.773Z,35.73
2018-04-15T02:39:25.264Z,34.03
2018-04-15T02:41:53.825Z,35.37
2018-04-15T02:44:22.351Z,33.67
2018-04-15T02:46:50.825Z,36.03
2018-04-15T02:49:19.332Z,34.90
2018-04-15T02:51:47.845Z,35.27
2018-04-15T02:54:16.396Z,36.20
2018-04-15T02:56:44.926Z,36.07
2018-04-15T02:59:13.390Z,36.53
2018-04-15T03:01:41.844Z,36.40
2018-04-15T03:04:10.371Z,35.90
2018-04-15T03:06:38.856Z,35.23
2018-04-15T03:09:07.372Z,36.23
2018-04-15T03:11:35.836Z,35.10
2018-04-15T03:14:04.341Z,36.17
2018-04-15T03:16:32.800Z,36.40
2018-04-15T03:19:01.303Z,34.57
2018-04-15T03:21:29.804Z,37.43
2018-04-15T03:23:58.322Z,35.27
2018-04-15T03:26:26.788Z,36.47
2018-04-15T03:28:55.309Z,35.10
2018-04-15T03:31:23.757Z,33.10
2018-04-15T03:33:52.247Z,26.57
2018-04-15T03:36:20.753Z,26.63
2018-04-15T03:38:49.212Z,25.37
2018-04-15T03:41:17.729Z,27.50
2018-04-15T03:43:46.176Z,25.40
2018-04-15T03:46:14.636Z,27.27
2018-04-15T03:48:43.157Z,27.30
2018-04-15T03:51:11.633Z,28.83
2018-04-15T03:53:40.078Z,25.37
2018-04-15T03:56:08.600Z,26.60
2018-04-15T03:58:37.064Z,29.60
2018-04-15T04:01:05.564Z,27.90
2018-04-15T04:03:34.108Z,23.87
2018-04-15T04:06:02.612Z,23.57
2018-04-15T04:08:31.598Z,23.57
2018-04-15T04:11:00.101Z,24.63
2018-04-15T04:13:28.599Z,23.20
2018-04-15T04:15:57.085Z,24.90
2018-04-15T04:18:37.122Z,25.83
2018-04-15T04:21:18.182Z,26.73
2018-04-15T04:23:58.242Z,26.87
2018-04-15T04:26:26.746Z,28.00
2018-04-15T04:28:55.192Z,27.93
2018-04-15T04:31:23.660Z,28.23
2018-04-15T04:33:52.160Z,27.83
2018-04-15T04:36:20.676Z,28.20
2018-04-15T04:38:49.192Z,29.57
2018-04-15T04:41:17.708Z,29.43
2018-04-15T04:43:46.191Z,29.37
2018-04-15T04:46:14.705Z,28.33
2018-04-15T04:48:43.166Z,30.33
2018-04-15T04:51:11.632Z,31.20
2018-04-15T04:53:40.152Z,30.47
2018-04-15T04:56:08.656Z,33.33
2018-04-15T04:58:37.157Z,33.37
2018-04-15T05:01:05.620Z,32.37
2018-04-15T05:03:34.128Z,33.27
2018-04-15T05:06:02.588Z,33.73
2018-04-15T05:08:31.099Z,35.37
2018-04-15T05:10:59.560Z,36.43
2018-04-15T05:13:28.035Z,36.30
2018-04-15T05:15:56.540Z,37.17
2018-04-15T05:18:25.046Z,33.63
2018-04-15T05:20:53.567Z,34.80
2018-04-15T05:23:22.052Z,34.03
2018-04-15T05:25:50.552Z,33.93
2018-04-15T05:28:19.048Z,33.50
2018-04-15T05:30:47.560Z,32.53
2018-04-15T05:33:16.055Z,32.43
2018-04-15T05:35:44.568Z,36.70
2018-04-15T05:38:13.036Z,39.37
2018-04-15T05:40:41.503Z,39.73
2018-04-15T05:43:10.016Z,38.27
2018-04-15T05:45:38.500Z,40.93
2018-04-15T05:48:06.953Z,38.70
2018-04-15T05:50:35.480Z,35.50
2018-04-15T05:53:03.958Z,36.20
2018-04-15T05:55:32.434Z,38.43
2018-04-15T05:58:00.940Z,41.13
2018-04-15T06:00:29.467Z,41.23
2018-04-15T06:02:57.976Z,40.77
2018-04-15T06:05:26.448Z,37.63
2018-04-15T06:07:54.924Z,37.43
2018-04-15T06:10:23.417Z,36.77
2018-04-15T06:12:51.928Z,34.10
2018-04-15T06:15:20.488Z,37.77
2018-04-15T06:17:49.000Z,37.43
2018-04-15T06:20:17.532Z,36.43
2018-04-15T06:22:46.036Z,34.60
2018-04-15T06:25:14.504Z,34.07
2018-04-15T06:27:43.004Z,34.20
2018-04-15T06:30:11.508Z,35.03
2018-04-15T06:32:39.992Z,36.50
2018-04-15T06:35:08.448Z,34.57
2018-04-15T06:37:36.955Z,36.97
2018-04-15T06:40:05.397Z,35.20
2018-04-15T06:42:33.910Z,33.07
2018-04-15T06:45:02.420Z,33.50
2018-04-15T06:47:30.935Z,34.23
2018-04-15T06:49:59.405Z,34.40
2018-04-15T06:52:27.914Z,33.57
2018-04-15T06:54:56.439Z,31.60
2018-04-15T06:57:24.934Z,33.73
2018-04-15T06:59:53.532Z,32.13
2018-04-15T07:02:22.041Z,30.00
2018-04-15T07:04:50.574Z,28.83
2018-04-15T07:07:19.046Z,30.33
2018-04-15T07:09:47.564Z,36.30
2018-04-15T07:12:16.069Z,29.47
2018-04-15T07:14:44.541Z,28.83
2018-04-15T07:17:13.002Z,32.37
2018-04-15T07:19:41.512Z,36.03
2018-04-15T07:22:09.980Z,35.30
2018-04-15T07:24:38.505Z,35.03
2018-04-15T07:27:07.034Z,35.33
2018-04-15T07:29:35.551Z,36.40
2018-04-15T07:32:04.028Z,32.37
2018-04-15T07:34:32.527Z,30.80
2018-04-15T07:37:00.992Z,30.50
2018-04-15T07:39:29.497Z,31.13
2018-04-15T07:41:57.980Z,32.30
2018-04-15T07:44:26.481Z,31.43
2018-04-15T07:46:54.989Z,31.73
2018-04-15T07:49:23.483Z,30.07
2018-04-15T07:51:51.988Z,31.43
2018-04-15T07:54:20.456Z,30.83
2018-04-15T07:56:48.964Z,29.33
2018-04-15T07:59:17.480Z,28.77
2018-04-15T08:01:45.948Z,30.10
2018-04-15T08:04:14.426Z,31.57
2018-04-15T08:06:42.936Z,30.53
2018-04-15T08:09:11.411Z,30.43
2018-04-15T08:11:39.935Z,29.23
2018-04-15T08:14:08.413Z,29.17
2018-04-15T08:16:36.921Z,30.47
2018-04-15T08:19:05.440Z,27.90
2018-04-15T08:21:33.908Z,28.40
2018-04-15T08:24:02.368Z,35.63
2018-04-15T08:26:30.884Z,29.07
2018-04-15T08:28:59.395Z,27.67
2018-04-15T08:31:27.856Z,26.47
2018-04-15T08:33:56.376Z,26.53
2018-04-15T08:36:24.829Z,27.40
2018-04-15T08:38:53.284Z,26.50
2018-04-15T08:41:21.790Z,26.00
2018-04-15T08:43:50.268Z,24.87
2018-04-15T08:46:18.793Z,25.33
2018-04-15T08:48:47.269Z,26.37
2018-04-15T08:51:15.740Z,25.40
2018-04-15T08:53:44.246Z,25.13
2018-04-15T08:56:12.712Z,23.27
2018-04-15T08:58:41.234Z,23.87
2018-04-15T09:01:09.697Z,24.27
2018-04-15T09:03:38.200Z,24.23
2018-04-15T09:06:06.708Z,25.03
2018-04-15T09:08:35.229Z,25.83
2018-04-15T09:11:03.678Z,24.17
2018-04-15T09:13:32.176Z,23.97
2018-04-15T09:16:00.668Z,23.70
2018-04-15T09:18:29.153Z,24.00
2018-04-15T09:20:57.671Z,23.77
2018-04-15T09:23:26.154Z,22.30
2018-04-15T09:25:54.647Z,25.10
2018-04-15T09:28:23.139Z,25.13
2018-04-15T09:30:57.206Z,24.70
2018-04-15T09:33:25.677Z,24.87
2018-04-15T09:35:54.179Z,25.30
2018-04-15T09:38:22.649Z,26.33
2018-04-15T09:40:51.107Z,25.40
2018-04-15T09:43:19.640Z,25.23
2018-04-15T09:45:48.109Z,25.97
2018-04-15T09:48:16.605Z,25.07
2018-04-15T09:50:45.108Z,25.00
2018-04-15T09:53:13.608Z,25.80
2018-04-15T09:55:42.073Z,24.50
2018-04-15T09:58:10.597Z,25.33
2018-04-15T10:00:39.077Z,24.33
2018-04-15T10:03:07.557Z,24.33
2018-04-15T10:05:36.060Z,24.63
2018-04-15T10:08:04.552Z,26.00
2018-04-15T10:10:33.061Z,25.43
2018-04-15T10:13:01.528Z,24.03
2018-04-15T10:15:30.033Z,25.60
2018-04-15T10:17:58.492Z,25.27
2018-04-15T10:20:27.014Z,24.30
2018-04-15T10:22:55.517Z,25.57
2018-04-15T10:25:24.016Z,25.67
2018-04-15T10:27:52.489Z,25.43
2018-04-15T10:30:21.029Z,25.20
2018-04-15T10:32:49.536Z,24.90
2018-04-15T10:35:18.033Z,24.83
2018-04-15T10:37:46.492Z,25.97
2018-04-15T10:40:14.960Z,24.57
2018-04-15T10:42:43.468Z,24.43
2018-04-15T10:45:11.924Z,26.27
2018-04-15T10:47:40.436Z,26.53
2018-04-15T10:50:08.918Z,26.27
2018-04-15T10:52:37.445Z,25.07
2018-04-15T10:55:05.913Z,25.03
2018-04-15T10:57:34.416Z,25.37
2018-04-15T11:00:02.892Z,24.87
2018-04-15T11:02:31.397Z,26.33
2018-04-15T11:04:59.860Z,26.17
2018-04-15T11:07:28.365Z,26.83
2018-04-15T11:09:56.867Z,24.77
2018-04-15T11:12:25.320Z,23.33
2018-04-15T11:14:53.820Z,25.37
2018-04-15T11:17:22.269Z,25.07
2018-04-15T11:19:50.794Z,23.73
2018-04-15T11:22:19.258Z,24.13
2018-04-15T11:24:47.779Z,23.87
2018-04-15T11:27:16.248Z,24.67
2018-04-15T11:29:44.736Z,23.87
2018-04-15T11:32:13.246Z,23.57
2018-04-15T11:34:41.739Z,25.20
2018-04-15T11:37:10.212Z,24.60
2018-04-15T11:39:38.705Z,25.43
2018-04-15T11:42:07.209Z,24.30
2018-04-15T11:44:35.773Z,26.00
2018-04-15T11:47:04.250Z,25.03
2018-04-15T11:49:32.719Z,24.47
2018-04-15T11:52:01.227Z,24.47
2018-04-15T11:54:29.748Z,25.13
2018-04-15T11:56:58.256Z,24.57
2018-04-15T11:59:26.778Z,23.17
2018-04-15T12:01:55.252Z,24.27
2018-04-15T12:04:23.771Z,25.70
2018-04-15T12:06:52.240Z,25.03
2018-04-15T12:09:20.746Z,25.07
2018-04-15T12:11:49.256Z,24.33
2018-04-15T12:14:17.724Z,24.37
2018-04-15T12:16:46.244Z,24.80
2018-04-15T12:19:14.711Z,24.33
2018-04-15T12:21:43.208Z,24.80
2018-04-15T12:24:11.687Z,25.50
2018-04-15T12:26:40.197Z,24.57
2018-04-15T12:29:08.712Z,24.13
2018-04-15T12:31:37.176Z,26.20
2018-04-15T12:34:05.689Z,23.97
2018-04-15T12:36:34.199Z,25.93
2018-04-15T12:39:02.680Z,25.33
2018-04-15T12:41:31.224Z,26.20
2018-04-15T12:43:59.687Z,25.63
2018-04-15T12:46:28.157Z,25.30
2018-04-15T12:48:56.657Z,25.53
2018-04-15T12:51:25.109Z,26.30
2018-04-15T12:53:53.608Z,24.43
2018-04-15T12:56:22.076Z,24.73
2018-04-15T12:58:50.578Z,25.70
2018-04-15T13:01:19.093Z,25.37
2018-04-15T13:03:47.564Z,25.97
2018-04-15T13:06:16.033Z,24.33
2018-04-15T13:08:44.536Z,25.47
2018-04-15T13:11:13.069Z,24.90
2018-04-15T13:13:41.530Z,23.27
2018-04-15T13:16:10.012Z,23.10
2018-04-15T13:18:38.527Z,24.20
2018-04-15T13:21:07.029Z,23.93
2018-04-15T13:23:35.533Z,23.77
2018-04-15T13:26:04.105Z,23.70
2018-04-15T13:28:32.590Z,24.40
2018-04-15T13:31:01.060Z,24.97
2018-04-15T13:33:29.573Z,24.50
2018-04-15T13:35:58.091Z,24.03
2018-04-15T13:38:26.613Z,23.77
2018-04-15T13:40:55.068Z,24.23
2018-04-15T13:43:23.533Z,23.77
2018-04-15T13:45:52.020Z,31.60
2018-04-15T13:48:20.505Z,33.77
2018-04-15T13:50:49.005Z,33.63
2018-04-15T13:53:17.536Z,35.27
2018-04-15T13:55:46.014Z,37.57
2018-04-15T13:58:14.527Z,35.93
2018-04-15T14:00:43.019Z,37.33
2018-04-15T14:03:11.528Z,35.83
2018-04-15T14:05:40.049Z,36.73
2018-04-15T14:08:08.541Z,35.77
2018-04-15T14:10:37.000Z,36.13
2018-04-15T14:13:05.520Z,36.13
2018-04-15T14:15:34.004Z,37.30
2018-04-15T14:18:02.549Z,37.40
2018-04-15T14:20:31.035Z,35.20
2018-04-15T14:22:59.541Z,35.47
2018-04-15T14:25:28.056Z,35.43
2018-04-15T14:27:56.550Z,35.87
2018-04-15T14:30:25.024Z,37.50
2018-04-15T14:32:53.540Z,38.13
2018-04-15T14:35:22.007Z,37.27
2018-04-15T14:37:50.477Z,36.47
2018-04-15T14:40:18.976Z,35.83
2018-04-15T14:42:47.445Z,34.43
2018-04-15T14:45:15.952Z,35.17
2018-04-15T14:47:44.413Z,36.70
2018-04-15T14:50:12.935Z,36.53
2018-04-15T14:52:41.474Z,36.77
2018-04-15T14:55:09.947Z,36.83
2018-04-15T14:57:38.481Z,40.27
2018-04-15T15:00:07.001Z,39.83
2018-04-15T15:02:35.563Z,40.47
2018-04-15T15:05:04.098Z,40.17
2018-04-15T15:07:32.564Z,39.97
2018-04-15T15:10:01.100Z,39.43
2018-04-15T15:12:29.594Z,39.13
2018-04-15T15:14:58.100Z,38.47
2018-04-15T15:17:26.596Z,36.97
2018-04-15T15:19:55.106Z,39.70
2018-04-15T15:22:23.578Z,37.13
2018-04-15T15:24:52.081Z,37.27
2018-04-15T15:27:20.561Z,39.90
2018-04-15T15:29:49.034Z,39.37
2018-04-15T15:32:17.558Z,41.00
2018-04-15T15:34:46.030Z,40.30
2018-04-15T15:37:14.529Z,39.93
2018-04-15T15:39:42.996Z,40.03
2018-04-15T15:42:11.513Z,39.43
2018-04-15T15:44:39.997Z,40.20
2018-04-15T15:47:08.493Z,40.13
2018-04-15T15:49:37.004Z,41.07
2018-04-15T15:52:05.501Z,41.03
2018-04-15T15:54:33.976Z,42.33
2018-04-15T15:57:02.492Z,42.07
2018-04-15T15:59:30.997Z,41.77
2018-04-15T16:01:59.509Z,42.80
2018-04-15T16:04:27.964Z,42.13
2018-04-15T16:06:56.499Z,41.30
2018-04-15T16:09:25.013Z,40.87
2018-04-15T16:11:53.468Z,41.37
2018-04-15T16:14:21.920Z,42.63
2018-04-15T16:16:50.418Z,43.33
2018-04-15T16:19:18.887Z,41.20
2018-04-15T16:21:47.373Z,41.47
2018-04-15T16:24:15.866Z,43.07
2018-04-15T16:26:44.324Z,41.10
2018-04-15T16:29:12.776Z,42.80
2018-04-15T16:31:41.274Z,42.47
2018-04-15T16:34:09.776Z,42.43
2018-04-15T16:36:38.284Z,42.27
2018-04-15T16:39:06.744Z,42.07
2018-04-15T16:41:35.216Z,42.23
2018-04-15T16:44:03.736Z,43.13
2018-04-15T16:46:32.196Z,43.83
2018-04-15T16:49:00.688Z,42.57
2018-04-15T16:51:29.180Z,44.77
2018-04-15T16:53:57.660Z,43.53
2018-04-15T16:56:26.164Z,43.40
2018-04-15T16:58:54.656Z,42.97
2018-04-15T17:01:23.094Z,42.93
2018-04-15T17:03:51.602Z,40.87
2018-04-15T17:06:20.131Z,42.50
2018-04-15T17:08:48.684Z,45.00
2018-04-15T17:11:17.184Z,43.67
2018-04-15T17:13:45.644Z,42.90
2018-04-15T17:16:14.136Z,42.63
2018-04-15T17:18:42.574Z,43.10
2018-04-15T17:21:11.088Z,43.30
2018-04-15T17:23:39.557Z,41.63
2018-04-15T17:26:08.038Z,43.23
2018-04-15T17:28:36.533Z,42.70
2018-04-15T17:31:05.008Z,42.13
2018-04-15T17:33:33.500Z,43.60
2018-04-15T17:36:01.988Z,43.47
2018-04-15T17:38:30.449Z,43.50
2018-04-15T17:40:58.956Z,44.20
2018-04-15T17:43:27.456Z,45.07
2018-04-15T17:45:55.938Z,42.90
2018-04-15T17:48:24.428Z,43.07
2018-04-15T17:50:52.881Z,43.63
2018-04-15T17:53:21.377Z,43.13
2018-04-15T17:55:49.847Z,46.30
2018-04-15T17:58:18.344Z,44.37
2018-04-15T18:00:46.851Z,45.10
2018-04-15T18:03:15.307Z,45.67
2018-04-15T18:05:43.764Z,44.40
2018-04-15T18:08:12.264Z,45.03
2018-04-15T18:10:40.720Z,43.67
2018-04-15T18:13:09.220Z,45.07
2018-04-15T18:15:37.729Z,76.77
2018-04-15T18:18:06.192Z,57.20
2018-04-15T18:20:34.694Z,44.87
2018-04-15T18:23:03.169Z,43.77
2018-04-15T18:25:31.628Z,42.80
2018-04-15T18:28:00.159Z,41.47
2018-04-15T18:30:28.657Z,42.37
2018-04-15T18:32:57.144Z,41.27
2018-04-15T18:35:25.637Z,42.37
2018-04-15T18:37:54.115Z,42.57
2018-04-15T18:40:22.688Z,41.63
2018-04-15T18:42:51.145Z,41.37
2018-04-15T18:45:19.596Z,39.37
2018-04-15T18:47:48.089Z,41.47
2018-04-15T18:50:16.592Z,40.53
2018-04-15T18:52:45.105Z,40.87
2018-04-15T18:55:13.659Z,42.33
2018-04-15T18:57:42.139Z,40.63
2018-04-15T19:00:10.652Z,41.03
2018-04-15T19:02:39.154Z,41.47
2018-04-15T19:05:07.626Z,42.17
2018-04-15T19:07:36.107Z,41.20
2018-04-15T19:10:04.610Z,41.33
2018-04-15T19:12:33.071Z,41.93
2018-04-15T19:15:01.561Z,42.43
2018-04-15T19:17:30.001Z,42.20
2018-04-15T19:19:58.497Z,42.10
2018-04-15T19:22:26.993Z,42.47
2018-04-15T19:24:55.479Z,40.83
2018-04-15T19:27:23.989Z,42.83
2018-04-15T19:29:52.450Z,43.17
2018-04-15T19:32:20.949Z,44.33
2018-04-15T19:34:49.544Z,44.03
2018-04-15T19:37:18.001Z,43.47
2018-04-15T19:39:46.471Z,45.53
2018-04-15T19:42:14.993Z,44.57
2018-04-15T19:44:43.458Z,42.87
2018-04-15T19:47:11.920Z,46.13
2018-04-15T19:49:40.405Z,43.30
2018-04-15T19:52:08.876Z,44.27
2018-04-15T19:54:37.435Z,43.63
2018-04-15T19:57:05.888Z,44.43
2018-04-15T19:59:34.380Z,44.73
2018-04-15T20:02:02.837Z,44.43
2018-04-15T20:04:31.342Z,43.07
2018-04-15T20:06:59.805Z,45.30
2018-04-15T20:09:28.285Z,44.13
2018-04-15T20:11:56.732Z,45.10
2018-04-15T20:14:25.209Z,45.23
2018-04-15T20:16:53.664Z,43.53
2018-04-15T20:19:22.153Z,45.33
2018-04-15T20:21:50.661Z,45.13
2018-04-15T20:24:19.172Z,42.47
2018-04-15T20:26:47.636Z,44.03
2018-04-15T20:29:16.101Z,44.70
2018-04-15T20:31:44.596Z,44.97
2018-04-15T20:34:13.052Z,45.17
2018-04-15T20:36:41.560Z,45.13
2018-04-15T20:39:10.037Z,45.23
2018-04-15T20:41:38.564Z,45.17
2018-04-15T20:44:07.030Z,46.43
2018-04-15T20:46:35.511Z,45.37
2018-04-15T20:49:04.023Z,47.40
2018-04-15T20:51:32.485Z,45.50
2018-04-15T20:54:00.983Z,45.80
2018-04-15T20:56:29.449Z,47.97
2018-04-15T20:58:57.919Z,47.50
2018-04-15T21:01:26.444Z,48.47
2018-04-15T21:03:54.913Z,46.20
2018-04-15T21:06:23.448Z,46.63
2018-04-15T21:08:51.905Z,49.07
2018-04-15T21:11:20.396Z,48.80
2018-04-15T21:13:48.833Z,48.43
2018-04-15T21:16:17.339Z,48.23
2018-04-15T21:18:45.845Z,49.00
2018-04-15T21:21:14.336Z,51.47
2018-04-15T21:23:42.828Z,50.57
2018-04-15T21:26:11.300Z,50.20
2018-04-15T21:28:39.853Z,48.67
2018-04-15T21:31:08.364Z,49.30
2018-04-15T21:33:36.820Z,49.20
2018-04-15T21:36:05.288Z,48.90
2018-04-15T21:38:33.812Z,48.97
2018-04-15T21:41:02.304Z,46.73
2018-04-15T21:43:31.027Z,47.60
2018-04-15T21:45:59.484Z,47.20
2018-04-15T21:48:28.007Z,47.70
2018-04-15T21:50:56.463Z,48.07
2018-04-15T21:53:24.950Z,48.10
2018-04-15T21:55:53.440Z,48.47
2018-04-15T21:58:21.897Z,47.97
2018-04-15T22:00:50.408Z,42.43
2018-04-15T22:03:18.927Z,48.00
2018-04-15T22:05:47.449Z,46.70
2018-04-15T22:08:15.904Z,46.80
2018-04-15T22:10:44.414Z,48.70
2018-04-15T22:13:12.880Z,46.87
2018-04-15T22:15:41.376Z,48.03
2018-04-15T22:18:09.884Z,47.70
2018-04-15T22:20:38.387Z,45.10
2018-04-15T22:23:06.845Z,47.87
2018-04-15T22:25:35.336Z,47.03
2018-04-15T22:28:03.813Z,43.90
2018-04-15T22:30:32.272Z,31.33
2018-04-15T22:33:00.776Z,35.20
2018-04-15T22:35:29.306Z,33.23
2018-04-15T22:37:57.844Z,33.43
2018-04-15T22:40:26.309Z,33.40
2018-04-15T22:42:54.809Z,28.70
2018-04-15T22:45:23.319Z,30.43
2018-04-15T22:47:57.368Z,25.67
2018-04-15T22:50:31.387Z,24.97
2018-04-15T22:52:59.864Z,21.13
2018-04-15T22:55:28.362Z,18.13
2018-04-15T22:57:56.864Z,17.57
2018-04-15T23:00:25.325Z,16.13
2018-04-15T23:02:53.872Z,15.50
2018-04-15T23:05:22.416Z,14.03
2018-04-15T23:07:50.888Z,13.37
2018-04-15T23:10:19.396Z,13.13
2018-04-15T23:12:47.923Z,11.17
2018-04-15T23:15:16.421Z,10.80
2018-04-15T23:17:44.923Z,11.10
2018-04-15T23:20:13.448Z,10.43
2018-04-15T23:22:41.956Z,10.93
2018-04-15T23:25:10.488Z,11.60
2018-04-15T23:27:38.957Z,11.57
2018-04-15T23:30:07.456Z,11.43
2018-04-15T23:32:35.976Z,11.40
2018-04-15T23:35:04.508Z,11.67
2018-04-15T23:37:32.985Z,12.13
2018-04-15T23:40:01.536Z,11.33
2018-04-15T23:42:30.033Z,11.13
2018-04-15T23:44:58.497Z,12.00
2018-04-15T23:47:27.016Z,11.47
2018-04-15T23:49:55.688Z,13.00
2018-04-15T23:52:24.195Z,12.43
2018-04-15T23:54:52.660Z,13.23
2018-04-15T23:57:21.202Z,13.63
2018-04-15T23:59:49.713Z,14.30
